TimeEDT,TemperatureF,Dew PointF,Humidity,Sea Level PressureIn,VisibilityMPH,Wind Direction,Wind SpeedMPH,Gust SpeedMPH,PrecipitationIn,Events,Conditions,WindDirDegrees,DateUTC
12:53 AM,39.9,28.0,63,30.44,10.0,ENE,6.9,-,N/A,,Overcast,60,2013-10-29 04:53:00
1:53 AM,39.9,27.0,60,30.43,10.0,NE,11.5,-,N/A,,Overcast,40,2013-10-29 05:53:00
2:53 AM,39.9,28.0,63,30.44,10.0,NNE,6.9,-,N/A,,Overcast,30,2013-10-29 06:53:00
3:53 AM,39.0,28.0,65,30.44,10.0,NE,8.1,-,N/A,,Overcast,40,2013-10-29 07:53:00
4:53 AM,39.0,28.9,67,30.44,10.0,NNE,6.9,-,N/A,,Overcast,30,2013-10-29 08:53:00
5:53 AM,39.0,28.9,67,30.45,10.0,NE,5.8,-,N/A,,Overcast,40,2013-10-29 09:53:00
6:53 AM,39.0,28.9,67,30.46,10.0,NE,5.8,-,N/A,,Overcast,40,2013-10-29 10:53:00
7:53 AM,39.0,30.0,70,30.45,10.0,NE,4.6,-,N/A,,Overcast,50,2013-10-29 11:53:00
8:53 AM,39.0,30.0,70,30.45,10.0,ENE,5.8,-,N/A,,Overcast,60,2013-10-29 12:53:00
9:53 AM,39.9,30.9,70,30.47,10.0,ENE,5.8,-,N/A,,Overcast,60,2013-10-29 13:53:00
10:53 AM,41.0,30.9,67,30.47,10.0,ENE,4.6,-,N/A,,Overcast,70,2013-10-29 14:53:00
11:37 AM,42.8,30.2,61,30.44,10.0,East,5.8,-,N/A,,Overcast,90,2013-10-29 15:37:00
11:53 AM,42.1,30.9,65,30.47,10.0,East,4.6,-,N/A,,Overcast,90,2013-10-29 15:53:00
12:53 PM,44.1,32.0,63,30.44,10.0,East,3.5,-,N/A,,Overcast,100,2013-10-29 16:53:00
1:53 PM,46.0,33.1,61,30.39,10.0,East,8.1,-,N/A,,Overcast,100,2013-10-29 17:53:00
2:01 PM,46.4,33.8,62,30.37,10.0,East,6.9,-,N/A,,Overcast,100,2013-10-29 18:01:00
2:12 PM,46.4,33.8,62,30.37,10.0,ESE,3.5,-,N/A,,Overcast,110,2013-10-29 18:12:00
2:23 PM,46.4,32.0,57,30.37,10.0,ESE,6.9,-,N/A,,Overcast,120,2013-10-29 18:23:00
2:33 PM,46.4,32.0,57,30.36,10.0,ESE,4.6,-,N/A,,Overcast,120,2013-10-29 18:33:00
2:53 PM,46.0,32.0,58,30.38,10.0,East,5.8,-,N/A,,Overcast,100,2013-10-29 18:53:00
3:14 PM,46.4,32.0,57,30.35,10.0,East,5.8,-,N/A,,Mostly Cloudy,100,2013-10-29 19:14:00
3:53 PM,46.9,33.1,59,30.37,10.0,East,6.9,-,N/A,,Scattered Clouds,80,2013-10-29 19:53:00
4:53 PM,46.9,32.0,56,30.36,10.0,East,5.8,-,N/A,,Overcast,90,2013-10-29 20:53:00
5:53 PM,46.0,32.0,58,30.34,10.0,East,6.9,-,N/A,,Overcast,100,2013-10-29 21:53:00
6:53 PM,45.0,32.0,60,30.33,10.0,East,6.9,-,N/A,,Overcast,100,2013-10-29 22:53:00
7:53 PM,44.1,30.9,60,30.33,10.0,ESE,6.9,-,N/A,,Overcast,110,2013-10-29 23:53:00
8:53 PM,42.1,30.9,65,30.31,10.0,SE,6.9,-,N/A,,Clear,130,2013-10-30 00:53:00
9:53 PM,41.0,30.0,65,30.30,10.0,SE,5.8,-,N/A,,Clear,130,2013-10-30 01:53:00
10:53 PM,39.9,28.9,65,30.30,10.0,ESE,3.5,-,N/A,,Clear,110,2013-10-30 02:53:00
11:53 PM,37.9,28.9,70,30.27,10.0,South,5.8,-,N/A,,Clear,170,2013-10-30 03:53:00